createdAt,value
2019-01-26T00:01:24.030Z,-8.40
2019-01-26T00:04:14.829Z,-8.40
2019-01-26T00:06:58.753Z,-8.40
2019-01-26T00:09:40.968Z,-8.40
2019-01-26T00:12:22.754Z,-8.40
2019-01-26T00:15:04.782Z,-8.30
2019-01-26T00:17:46.859Z,-8.40
2019-01-26T00:20:28.489Z,-8.40
2019-01-26T00:23:10.982Z,-8.40
2019-01-26T00:25:53.029Z,-8.50
2019-01-26T00:28:34.963Z,-8.60
2019-01-26T00:31:17.241Z,-8.60
2019-01-26T00:33:57.654Z,-8.70
2019-01-26T00:36:47.111Z,-8.70
2019-01-26T00:39:30.702Z,-8.80
2019-01-26T00:42:12.358Z,-8.80
2019-01-26T00:44:54.213Z,-8.80
2019-01-26T00:47:36.038Z,-8.80
2019-01-26T00:50:18.445Z,-8.70
2019-01-26T00:53:00.734Z,-8.70
2019-01-26T00:55:42.958Z,-8.70
2019-01-26T00:58:25.205Z,-8.70
2019-01-26T01:01:07.406Z,-8.80
2019-01-26T01:03:49.027Z,-8.90
2019-01-26T01:06:31.186Z,-8.90
2019-01-26T01:09:13.309Z,-9.00
2019-01-26T01:11:55.866Z,-9.00
2019-01-26T01:14:37.798Z,-9.10
2019-01-26T01:17:19.706Z,-9.10
2019-01-26T01:20:01.682Z,-9.10
2019-01-26T01:22:43.686Z,-9.00
2019-01-26T01:25:25.785Z,-9.10
2019-01-26T01:28:07.540Z,-9.00
2019-01-26T01:30:49.824Z,-9.00
2019-01-26T01:33:31.619Z,-8.90
2019-01-26T01:36:13.759Z,-8.90
2019-01-26T01:38:55.382Z,-8.90
2019-01-26T01:41:37.066Z,-8.90
2019-01-26T01:44:18.662Z,-8.90
2019-01-26T01:47:00.593Z,-8.90
2019-01-26T01:49:42.547Z,-8.90
2019-01-26T01:52:24.530Z,-8.90
2019-01-26T01:55:06.266Z,-8.80
2019-01-26T01:57:48.322Z,-8.80
2019-01-26T02:00:30.161Z,-8.80
2019-01-26T02:03:12.190Z,-8.90
2019-01-26T02:05:53.866Z,-8.90
2019-01-26T02:08:36.146Z,-8.90
2019-01-26T02:11:18.306Z,-9.00
2019-01-26T02:14:00.222Z,-9.00
2019-01-26T02:16:41.830Z,-9.00
2019-01-26T02:19:24.302Z,-9.00
2019-01-26T02:22:06.485Z,-9.00
2019-01-26T02:24:48.290Z,-9.10
2019-01-26T02:27:32.969Z,-9.10
2019-01-26T02:30:15.042Z,-9.10
2019-01-26T02:32:57.300Z,-9.20
2019-01-26T02:35:39.035Z,-9.30
2019-01-26T02:38:21.147Z,-9.30
2019-01-26T02:41:03.065Z,-9.20
2019-01-26T02:43:44.874Z,-9.20
2019-01-26T02:46:26.561Z,-9.10
2019-01-26T02:49:08.342Z,-9.10
2019-01-26T02:51:51.226Z,-9.10
2019-01-26T02:54:33.262Z,-9.20
2019-01-26T02:57:15.157Z,-9.20
2019-01-26T02:59:57.372Z,-9.20
2019-01-26T03:02:40.001Z,-9.10
2019-01-26T03:05:22.154Z,-9.10
2019-01-26T03:08:03.901Z,-9.10
2019-01-26T03:10:45.717Z,-9.10
2019-01-26T03:13:28.231Z,-9.00
2019-01-26T03:16:10.361Z,-9.00
2019-01-26T03:18:52.530Z,-8.90
2019-01-26T03:21:35.002Z,-8.90
2019-01-26T03:24:16.971Z,-8.90
2019-01-26T03:26:58.653Z,-8.90
2019-01-26T03:29:41.268Z,-8.90
2019-01-26T03:32:23.052Z,-8.90
2019-01-26T03:35:04.926Z,-8.80
2019-01-26T03:37:46.803Z,-8.80
2019-01-26T03:40:28.972Z,-8.70
2019-01-26T03:43:10.768Z,-8.70
2019-01-26T03:45:52.461Z,-8.70
2019-01-26T03:48:34.370Z,-8.60
2019-01-26T03:51:16.225Z,-8.50
2019-01-26T03:53:58.747Z,-8.50
2019-01-26T03:56:40.536Z,-8.50
2019-01-26T03:59:22.298Z,-8.50
2019-01-26T04:02:04.264Z,-8.40
2019-01-26T04:04:46.347Z,-8.50
2019-01-26T04:07:28.586Z,-8.40
2019-01-26T04:10:10.441Z,-8.30
2019-01-26T04:12:52.886Z,-8.30
2019-01-26T04:15:34.838Z,-8.20
2019-01-26T04:18:16.539Z,-8.10
2019-01-26T04:20:58.697Z,-8.00
2019-01-26T04:23:40.534Z,-8.00
2019-01-26T04:26:22.515Z,-7.90
2019-01-26T04:29:04.270Z,-7.80
2019-01-26T04:31:46.506Z,-7.70
2019-01-26T04:34:28.424Z,-7.70
2019-01-26T04:37:10.578Z,-7.70
2019-01-26T04:39:52.433Z,-7.60
2019-01-26T04:42:34.683Z,-7.60
2019-01-26T04:45:16.737Z,-7.50
2019-01-26T04:47:58.415Z,-7.50
2019-01-26T04:50:42.418Z,-7.50
2019-01-26T04:53:23.938Z,-7.50
2019-01-26T04:56:06.066Z,-7.40
2019-01-26T04:58:47.654Z,-7.30
2019-01-26T05:01:29.366Z,-7.30
2019-01-26T05:04:11.686Z,-7.20
2019-01-26T05:06:53.921Z,-7.20
2019-01-26T05:09:35.994Z,-7.20
2019-01-26T05:12:18.045Z,-7.10
2019-01-26T05:15:00.032Z,-7.10
2019-01-26T05:17:42.054Z,-7.00
2019-01-26T05:20:24.189Z,-7.00
2019-01-26T05:23:06.622Z,-7.00
2019-01-26T05:25:48.454Z,-7.00
2019-01-26T05:28:30.557Z,-6.90
2019-01-26T05:31:12.181Z,-6.90
2019-01-26T05:33:53.920Z,-6.90
2019-01-26T05:36:35.974Z,-6.70
2019-01-26T05:39:17.825Z,-6.80
2019-01-26T05:41:59.986Z,-6.80
2019-01-26T05:44:42.163Z,-6.80
2019-01-26T05:47:24.063Z,-6.80
2019-01-26T05:50:06.370Z,-6.80
2019-01-26T05:52:48.065Z,-6.80
2019-01-26T05:55:30.765Z,-6.80
2019-01-26T05:58:12.470Z,-6.80
2019-01-26T06:00:54.610Z,-6.70
2019-01-26T06:03:36.890Z,-6.60
2019-01-26T06:06:19.289Z,-6.60
2019-01-26T06:09:01.502Z,-6.50
2019-01-26T06:11:43.614Z,-6.50
2019-01-26T06:14:25.522Z,-6.40
2019-01-26T06:17:08.931Z,-6.30
2019-01-26T06:19:50.836Z,-6.30
2019-01-26T06:22:32.815Z,-6.30
2019-01-26T06:25:14.475Z,-6.30
2019-01-26T06:27:56.624Z,-6.30
2019-01-26T06:30:38.717Z,-6.20
2019-01-26T06:33:20.255Z,-6.30
2019-01-26T06:36:02.027Z,-6.20
2019-01-26T06:38:43.993Z,-6.20
2019-01-26T06:41:26.103Z,-6.20
2019-01-26T06:44:07.718Z,-6.20
2019-01-26T06:46:50.206Z,-6.20
2019-01-26T06:49:31.899Z,-6.10
2019-01-26T06:52:13.546Z,-6.10
2019-01-26T06:54:55.515Z,-6.00
2019-01-26T06:57:37.693Z,-6.00
2019-01-26T07:00:19.507Z,-6.10
2019-01-26T07:03:01.542Z,-6.00
2019-01-26T07:05:48.917Z,-6.00
2019-01-26T07:08:32.729Z,-6.00
2019-01-26T07:11:14.404Z,-6.00
2019-01-26T07:13:56.960Z,-6.00
2019-01-26T07:16:39.006Z,-6.00
2019-01-26T07:19:21.217Z,-5.90
2019-01-26T07:22:03.049Z,-5.80
2019-01-26T07:24:44.938Z,-5.80
2019-01-26T07:27:26.882Z,-5.70
2019-01-26T07:30:08.926Z,-5.70
2019-01-26T07:32:50.798Z,-5.60
2019-01-26T07:35:31.195Z,-5.50
2019-01-26T07:38:20.646Z,-5.50
2019-01-26T07:41:04.235Z,-5.40
2019-01-26T07:43:46.302Z,-5.30
2019-01-26T07:46:28.196Z,-5.20
2019-01-26T07:49:10.157Z,-5.20
2019-01-26T07:51:52.011Z,-5.20
2019-01-26T07:54:33.731Z,-5.20
2019-01-26T07:57:15.975Z,-5.20
2019-01-26T07:59:57.799Z,-5.10
2019-01-26T08:02:40.827Z,-5.00
2019-01-26T08:05:22.584Z,-5.00
2019-01-26T08:08:04.595Z,-4.90
2019-01-26T08:10:46.400Z,-4.80
2019-01-26T08:13:28.169Z,-4.70
2019-01-26T08:16:10.098Z,-4.60
2019-01-26T08:18:52.237Z,-4.50
2019-01-26T08:21:32.658Z,-4.50
2019-01-26T08:24:22.035Z,-4.40
2019-01-26T08:27:05.886Z,-4.30
2019-01-26T08:29:47.650Z,-4.20
2019-01-26T08:32:29.698Z,-4.20
2019-01-26T08:35:11.769Z,-4.10
2019-01-26T08:37:53.737Z,-4.00
2019-01-26T08:40:35.633Z,-3.90
2019-01-26T08:43:18.018Z,-3.80
2019-01-26T08:46:00.098Z,-3.70
2019-01-26T08:48:42.358Z,-3.60
2019-01-26T08:51:24.141Z,-3.50
2019-01-26T08:54:06.245Z,-3.40
2019-01-26T08:56:48.367Z,-3.30
2019-01-26T08:59:30.454Z,-3.20
2019-01-26T09:02:31.212Z,-3.10
2019-01-26T09:05:16.328Z,-3.10
2019-01-26T09:07:58.190Z,-3.00
2019-01-26T09:10:40.490Z,-3.00
2019-01-26T09:13:22.559Z,-3.00
2019-01-26T09:16:04.569Z,-2.90
2019-01-26T09:18:47.394Z,-2.80
2019-01-26T09:21:29.433Z,-2.70
2019-01-26T09:24:11.238Z,-2.50
2019-01-26T09:26:53.478Z,-2.20
2019-01-26T09:29:35.909Z,-2.10
2019-01-26T09:32:17.874Z,-2.00
2019-01-26T09:34:59.759Z,-2.00
2019-01-26T09:37:41.670Z,-1.90
2019-01-26T09:40:23.933Z,-1.70
2019-01-26T09:43:05.949Z,-1.50
2019-01-26T09:45:47.654Z,-0.40
2019-01-26T09:48:30.174Z,-0.40
2019-01-26T09:51:11.781Z,-0.50
2019-01-26T09:53:53.857Z,-0.50
2019-01-26T09:56:35.618Z,-0.40
2019-01-26T09:59:18.006Z,-0.30
2019-01-26T10:01:59.906Z,-0.10
2019-01-26T10:04:42.390Z,-0.10
2019-01-26T10:07:24.175Z,-0.10
2019-01-26T10:10:06.370Z,0.00
2019-01-26T10:12:48.385Z,0.30
2019-01-26T10:15:31.346Z,0.30
2019-01-26T10:18:13.717Z,0.30
2019-01-26T10:20:55.493Z,0.50
2019-01-26T10:23:37.946Z,0.50
2019-01-26T10:26:19.807Z,0.60
2019-01-26T10:29:02.067Z,0.80
2019-01-26T10:31:44.318Z,0.60
2019-01-26T10:34:26.042Z,0.60
2019-01-26T10:37:12.826Z,0.70
2019-01-26T10:43:02.670Z,0.90
2019-01-26T10:45:46.527Z,0.70
2019-01-26T10:48:28.410Z,0.70
2019-01-26T10:51:10.575Z,0.90
2019-01-26T10:53:52.310Z,0.90
2019-01-26T10:56:34.854Z,1.10
2019-01-26T10:59:17.305Z,1.20
2019-01-26T11:01:59.042Z,1.20
2019-01-26T11:04:41.482Z,1.30
2019-01-26T11:07:24.045Z,1.40
2019-01-26T11:10:06.631Z,1.40
2019-01-26T11:12:48.494Z,1.50
2019-01-26T11:15:30.578Z,1.60
2019-01-26T11:18:12.238Z,1.60
2019-01-26T11:21:04.662Z,1.70
2019-01-26T11:23:48.214Z,1.60
2019-01-26T11:26:29.902Z,1.50
2019-01-26T11:29:12.334Z,1.70
2019-01-26T11:31:54.077Z,1.80
2019-01-26T11:34:36.002Z,2.00
2019-01-26T11:37:18.016Z,2.10
2019-01-26T11:43:17.866Z,2.40
2019-01-26T11:49:19.466Z,2.40
2019-01-26T11:52:08.861Z,2.40
2019-01-26T11:55:09.823Z,2.50
2019-01-26T11:57:52.978Z,2.50
2019-01-26T12:00:59.296Z,2.40
2019-01-26T12:03:56.625Z,2.30
2019-01-26T12:06:44.941Z,2.30
2019-01-26T12:09:28.694Z,2.20
2019-01-26T12:12:11.262Z,2.20
2019-01-26T12:14:53.171Z,2.40
2019-01-26T12:17:36.634Z,2.40
2019-01-26T12:20:18.813Z,2.40
2019-01-26T12:23:00.591Z,2.50
2019-01-26T12:25:42.451Z,2.60
2019-01-26T12:28:24.995Z,2.60
2019-01-26T12:31:07.146Z,2.70
2019-01-26T12:33:47.606Z,2.70
2019-01-26T12:36:36.973Z,2.70
2019-01-26T12:39:20.674Z,2.70
2019-01-26T12:42:03.082Z,2.80
2019-01-26T12:44:45.102Z,2.80
2019-01-26T12:47:27.358Z,2.80
2019-01-26T12:50:09.630Z,2.70
2019-01-26T12:52:51.302Z,2.70
2019-01-26T12:55:33.195Z,2.80
2019-01-26T12:58:15.069Z,2.80
2019-01-26T13:00:57.089Z,2.70
2019-01-26T13:03:39.035Z,2.70
2019-01-26T13:06:21.022Z,2.80
2019-01-26T13:09:02.807Z,2.80
2019-01-26T13:11:44.692Z,2.80
2019-01-26T13:14:27.119Z,2.70
2019-01-26T13:17:09.397Z,2.60
2019-01-26T13:19:51.997Z,2.60
2019-01-26T13:22:22.380Z,2.50
2019-01-26T13:25:13.965Z,2.50
2019-01-26T13:27:57.440Z,2.50
2019-01-26T13:30:39.505Z,2.50
2019-01-26T13:33:21.476Z,2.40
2019-01-26T13:36:03.242Z,2.40
2019-01-26T13:38:33.601Z,2.30
2019-01-26T13:41:24.409Z,2.30
2019-01-26T13:44:07.836Z,2.20
2019-01-26T13:46:49.963Z,2.10
2019-01-26T13:49:32.287Z,2.00
2019-01-26T13:52:13.986Z,1.90
2019-01-26T13:54:56.015Z,1.90
2019-01-26T13:57:37.798Z,1.80
2019-01-26T14:00:19.694Z,1.80
2019-01-26T14:03:01.827Z,1.80
2019-01-26T14:05:44.409Z,1.80
2019-01-26T14:08:26.198Z,1.70
2019-01-26T14:11:08.401Z,1.70
2019-01-26T14:13:50.438Z,1.70
2019-01-26T14:16:32.530Z,1.70
2019-01-26T14:19:14.526Z,1.70
2019-01-26T14:21:56.531Z,1.70
2019-01-26T14:24:38.458Z,1.80
2019-01-26T14:27:20.382Z,1.70
2019-01-26T14:30:02.382Z,1.70
2019-01-26T14:32:44.006Z,1.60
2019-01-26T14:35:26.546Z,1.50
2019-01-26T14:38:08.319Z,1.40
2019-01-26T14:40:50.018Z,1.30
2019-01-26T14:43:31.897Z,1.20
2019-01-26T14:46:14.626Z,1.10
2019-01-26T14:48:56.386Z,1.00
2019-01-26T14:51:38.193Z,0.90
2019-01-26T14:54:20.142Z,0.80
2019-01-26T14:57:02.132Z,0.80
2019-01-26T14:59:43.874Z,0.70
2019-01-26T15:02:25.591Z,0.60
2019-01-26T15:05:07.609Z,0.50
2019-01-26T15:07:49.522Z,0.50
2019-01-26T15:10:31.610Z,0.40
2019-01-26T15:13:13.274Z,0.40
2019-01-26T15:15:54.966Z,0.40
2019-01-26T15:18:37.422Z,0.30
2019-01-26T15:21:19.163Z,0.20
2019-01-26T15:24:01.569Z,0.10
2019-01-26T15:26:44.030Z,0.00
2019-01-26T15:29:26.327Z,-0.10
2019-01-26T15:32:08.431Z,-0.20
2019-01-26T15:34:50.814Z,-0.30
2019-01-26T15:37:32.717Z,-0.40
2019-01-26T15:40:14.834Z,-0.50
2019-01-26T15:42:56.706Z,-0.50
2019-01-26T15:45:38.401Z,-0.60
2019-01-26T15:48:22.372Z,-0.60
2019-01-26T15:51:04.445Z,-0.60
2019-01-26T15:53:46.211Z,-0.70
2019-01-26T15:56:28.649Z,-0.80
2019-01-26T15:59:10.286Z,-0.90
2019-01-26T16:01:52.259Z,-0.90
2019-01-26T16:04:34.042Z,-1.00
2019-01-26T16:07:16.157Z,-1.10
2019-01-26T16:09:58.727Z,-1.10
2019-01-26T16:12:29.085Z,-1.10
2019-01-26T16:18:22.026Z,-1.20
2019-01-26T16:21:05.243Z,-1.20
2019-01-26T16:23:46.944Z,-1.40
2019-01-26T16:26:28.825Z,-1.40
2019-01-26T16:29:11.318Z,-1.50
2019-01-26T16:31:53.227Z,-1.50
2019-01-26T16:34:35.286Z,-1.50
2019-01-26T16:37:17.166Z,-1.50
2019-01-26T16:39:59.301Z,-1.60
2019-01-26T16:42:41.137Z,-1.60
2019-01-26T16:45:23.130Z,-1.70
2019-01-26T16:48:04.785Z,-1.80
2019-01-26T16:50:47.046Z,-1.80
2019-01-26T16:53:28.926Z,-1.90
2019-01-26T16:56:10.610Z,-1.90
2019-01-26T16:58:52.466Z,-1.50
2019-01-26T17:01:34.670Z,-1.00
2019-01-26T17:04:16.370Z,-0.80
2019-01-26T17:06:58.398Z,-0.80
2019-01-26T17:09:40.114Z,-0.90
2019-01-26T17:12:22.341Z,-1.10
2019-01-26T17:15:04.330Z,-1.20
2019-01-26T17:17:46.142Z,-1.30
2019-01-26T17:20:34.622Z,-1.40
2019-01-26T17:23:12.250Z,-1.50
2019-01-26T17:25:54.113Z,-1.50
2019-01-26T17:28:36.694Z,-1.60
2019-01-26T17:31:18.918Z,-1.60
2019-01-26T17:34:01.360Z,-1.70
2019-01-26T17:36:43.386Z,-1.80
2019-01-26T17:39:25.654Z,-1.80
2019-01-26T17:42:08.037Z,-1.80
2019-01-26T17:44:49.965Z,-1.70
2019-01-26T17:47:32.062Z,-1.60
2019-01-26T17:50:13.867Z,-1.50
2019-01-26T17:52:55.769Z,-1.50
2019-01-26T17:55:37.830Z,-1.50
2019-01-26T17:58:20.686Z,-1.50
2019-01-26T18:01:02.862Z,-1.60
2019-01-26T18:03:44.665Z,-1.30
2019-01-26T18:06:26.420Z,-1.20
2019-01-26T18:09:08.774Z,-1.30
2019-01-26T18:11:50.944Z,-1.20
2019-01-26T18:14:33.110Z,-1.30
2019-01-26T18:17:15.271Z,-1.40
2019-01-26T18:19:57.185Z,-1.20
2019-01-26T18:22:39.081Z,-1.20
2019-01-26T18:25:21.018Z,-1.20
2019-01-26T18:28:02.996Z,-1.20
2019-01-26T18:30:44.814Z,-1.20
2019-01-26T18:33:26.859Z,-1.30
2019-01-26T18:36:08.586Z,-1.50
2019-01-26T18:38:50.398Z,-1.50
2019-01-26T18:41:32.290Z,-1.60
2019-01-26T18:44:14.408Z,-1.70
2019-01-26T18:46:56.538Z,-1.70
2019-01-26T18:49:38.574Z,-1.70
2019-01-26T18:52:20.450Z,-1.70
2019-01-26T18:55:02.217Z,-1.80
2019-01-26T18:57:44.261Z,-1.70
2019-01-26T19:00:26.997Z,-1.70
2019-01-26T19:03:09.417Z,-1.70
2019-01-26T19:05:51.085Z,-1.60
2019-01-26T19:08:32.862Z,-1.60
2019-01-26T19:11:14.555Z,-1.60
2019-01-26T19:13:56.756Z,-1.60
2019-01-26T19:16:38.950Z,-1.50
2019-01-26T19:19:20.831Z,-1.50
2019-01-26T19:22:02.658Z,-1.50
2019-01-26T19:24:44.412Z,-1.50
2019-01-26T19:27:26.290Z,-1.50
2019-01-26T19:30:08.414Z,-1.40
2019-01-26T19:32:50.262Z,-1.40
2019-01-26T19:35:32.606Z,-1.40
2019-01-26T19:38:15.597Z,-1.40
2019-01-26T19:40:58.098Z,-1.40
2019-01-26T19:43:40.497Z,-1.40
2019-01-26T19:46:23.050Z,-1.30
2019-01-26T19:49:05.098Z,-1.40
2019-01-26T19:51:46.994Z,-1.40
2019-01-26T19:54:29.325Z,-1.40
2019-01-26T19:57:11.382Z,-1.40
2019-01-26T19:59:53.583Z,-1.10
2019-01-26T20:02:35.703Z,-1.10
2019-01-26T20:05:18.618Z,-1.00
2019-01-26T20:08:00.498Z,-1.00
2019-01-26T20:10:42.223Z,-1.00
2019-01-26T20:13:24.322Z,-1.10
2019-01-26T20:16:06.452Z,-1.10
2019-01-26T20:18:48.250Z,-1.20
2019-01-26T20:21:30.262Z,-1.30
2019-01-26T20:24:12.829Z,-1.30
2019-01-26T20:26:54.643Z,-1.30
2019-01-26T20:29:36.743Z,-1.40
2019-01-26T20:32:18.901Z,-1.40
2019-01-26T20:35:01.819Z,-1.30
2019-01-26T20:37:44.320Z,-1.30
2019-01-26T20:40:26.461Z,-1.30
2019-01-26T20:43:08.610Z,-1.30
2019-01-26T20:45:50.858Z,-1.30
2019-01-26T20:48:33.333Z,-1.30
2019-01-26T20:51:15.152Z,-1.30
2019-01-26T20:53:57.582Z,-1.40
2019-01-26T20:56:39.911Z,-1.50
2019-01-26T20:59:21.658Z,-1.50
2019-01-26T21:02:03.634Z,-1.60
2019-01-26T21:04:45.682Z,-1.70
2019-01-26T21:07:27.494Z,-1.60
2019-01-26T21:10:09.653Z,-1.70
2019-01-26T21:12:51.634Z,-1.80
2019-01-26T21:15:33.577Z,-1.90
2019-01-26T21:18:15.270Z,-1.90
2019-01-26T21:20:57.680Z,-1.60
2019-01-26T21:23:40.121Z,-1.50
2019-01-26T21:26:22.022Z,-1.30
2019-01-26T21:29:04.191Z,-1.40
2019-01-26T21:31:45.994Z,-1.40
2019-01-26T21:34:28.467Z,-1.40
2019-01-26T21:37:10.481Z,-1.50
2019-01-26T21:39:52.979Z,-1.60
2019-01-26T21:42:34.860Z,-1.70
2019-01-26T21:45:16.919Z,-1.90
2019-01-26T21:47:58.730Z,-2.00
2019-01-26T21:50:40.674Z,-2.10
2019-01-26T21:53:22.318Z,-2.20
2019-01-26T21:56:04.503Z,-2.00
2019-01-26T21:58:46.282Z,-2.00
2019-01-26T22:01:28.310Z,-2.10
2019-01-26T22:04:10.238Z,-2.20
2019-01-26T22:06:52.230Z,-2.20
2019-01-26T22:09:34.282Z,-2.30
2019-01-26T22:12:16.598Z,-2.40
2019-01-26T22:14:58.993Z,-2.40
2019-01-26T22:17:41.114Z,-2.50
2019-01-26T22:20:23.307Z,-2.60
2019-01-26T22:23:05.062Z,-2.60
2019-01-26T22:25:46.706Z,-2.60
2019-01-26T22:28:28.786Z,-2.60
2019-01-26T22:31:10.846Z,-2.60
2019-01-26T22:33:52.426Z,-2.60
2019-01-26T22:36:34.928Z,-2.60
2019-01-26T22:39:16.919Z,-2.70
2019-01-26T22:41:59.113Z,-2.70
2019-01-26T22:44:40.770Z,-2.80
2019-01-26T22:47:22.654Z,-2.70
2019-01-26T22:50:04.678Z,-2.70
2019-01-26T22:52:46.289Z,-2.60
2019-01-26T22:55:28.208Z,-2.60
2019-01-26T22:58:10.465Z,-2.60
2019-01-26T23:00:53.226Z,-2.60
2019-01-26T23:03:35.226Z,-2.60
2019-01-26T23:06:17.498Z,-2.60
2019-01-26T23:08:59.141Z,-2.70
2019-01-26T23:11:41.532Z,-2.60
2019-01-26T23:14:50.189Z,-2.60
2019-01-26T23:18:00.213Z,-2.60
2019-01-26T23:20:43.254Z,-2.60
2019-01-26T23:23:25.229Z,-2.50
2019-01-26T23:26:07.062Z,-2.50
2019-01-26T23:28:49.173Z,-2.50
2019-01-26T23:31:30.902Z,-2.60
2019-01-26T23:34:13.085Z,-2.60
2019-01-26T23:36:55.230Z,-2.70
2019-01-26T23:39:37.567Z,-2.70
2019-01-26T23:42:19.461Z,-2.70
2019-01-26T23:45:01.549Z,-2.70
2019-01-26T23:47:43.574Z,-2.80
2019-01-26T23:50:25.539Z,-2.80
2019-01-26T23:53:07.593Z,-2.80
2019-01-26T23:55:49.782Z,-2.80
2019-01-26T23:58:32.641Z,-2.70
